Time;durP1;ratioP1;P1;durP2;ratioP2;P2;SDS_P1;SDS_P2;PMS_P1;PMS_P2;Temp;Humidity;BMP_temperature;BMP_pressure;BME280_temperature;BME280_humidity;BME280_pressure;Samples;Min_cycle;Max_cycle;Signal;HPM_P1;HPM_P2
2023/03/16 00:00:41;;;;;;;8.75;5.60;;;;;;;3.52;100.00;101616.22;5282092;28;20486;-79
2023/03/16 00:03:19;;;;;;;10.32;5.53;;;;;;;3.52;100.00;101623.28;5270907;28;20024;-79
2023/03/16 00:05:52;;;;;;;11.38;6.18;;;;;;;3.52;100.00;101610.09;5284202;28;20348;-79
2023/03/16 00:08:24;;;;;;;9.70;5.90;;;;;;;3.53;100.00;101617.09;5293874;28;20027;-79
2023/03/16 00:10:55;;;;;;;9.13;5.75;;;;;;;3.59;100.00;101616.88;5283430;28;20028;-79
2023/03/16 00:13:26;;;;;;;9.32;5.78;;;;;;;3.61;100.00;101608.91;5277746;28;20035;-79
2023/03/16 00:16:00;;;;;;;10.00;6.05;;;;;;;3.58;100.00;101609.00;5272211;28;20020;-79
2023/03/16 00:18:38;;;;;;;8.05;5.63;;;;;;;3.55;100.00;101607.34;5271215;28;20075;-77
2023/03/16 00:21:11;;;;;;;7.88;5.70;;;;;;;3.58;100.00;101603.72;5283204;28;20063;-77
2023/03/16 00:23:43;;;;;;;9.73;6.28;;;;;;;3.59;100.00;101598.41;5275615;28;20111;-77
2023/03/16 00:26:14;;;;;;;10.77;5.90;;;;;;;3.59;100.00;101598.41;5283083;28;20047;-77
2023/03/16 00:28:45;;;;;;;10.27;6.07;;;;;;;3.57;100.00;101592.31;5283033;28;20073;-77
2023/03/16 00:31:17;;;;;;;7.55;5.78;;;;;;;3.65;100.00;101586.78;5283696;28;20203;-77
2023/03/16 00:33:48;;;;;;;7.25;5.60;;;;;;;3.65;100.00;101589.41;5282503;28;20024;-77
2023/03/16 00:36:21;;;;;;;10.40;6.15;;;;;;;3.64;100.00;101591.16;5281190;28;20028;-76
2023/03/16 00:38:53;;;;;;;11.85;5.90;;;;;;;3.62;100.00;101592.16;5281249;28;20385;-77
2023/03/16 00:41:24;;;;;;;9.70;6.32;;;;;;;3.64;100.00;101588.53;5283054;28;20041;-77
2023/03/16 00:43:55;;;;;;;8.63;5.90;;;;;;;3.64;100.00;101577.97;5281407;28;20060;-77
2023/03/16 00:46:27;;;;;;;10.10;6.07;;;;;;;3.65;100.00;101577.06;5283701;28;20081;-77
2023/03/16 00:48:58;;;;;;;9.50;6.45;;;;;;;3.70;100.00;101574.25;5282495;28;20020;-80
2023/03/16 00:51:32;;;;;;;10.68;6.63;;;;;;;3.73;100.00;101575.00;5283133;28;20024;-78
2023/03/16 00:54:04;;;;;;;11.48;6.65;;;;;;;3.63;100.00;101568.34;5286504;28;20077;-77
2023/03/16 00:56:35;;;;;;;8.70;6.18;;;;;;;3.66;100.00;101576.16;5283195;28;21096;-77
2023/03/16 00:59:07;;;;;;;9.52;6.57;;;;;;;3.65;100.00;101577.06;5283716;28;20032;-77
2023/03/16 01:01:39;;;;;;;9.80;6.25;;;;;;;3.73;100.00;101577.66;5284460;28;20034;-79
2023/03/16 01:04:10;;;;;;;11.05;6.57;;;;;;;3.66;100.00;101567.38;5282535;28;20474;-78
2023/03/16 01:06:41;;;;;;;10.70;6.60;;;;;;;3.69;100.00;101564.63;5280814;28;20052;-78
2023/03/16 01:09:13;;;;;;;10.52;6.60;;;;;;;3.68;100.00;101547.94;5281694;28;20400;-78
2023/03/16 01:11:46;;;;;;;9.68;6.40;;;;;;;3.71;100.00;101546.97;5287117;28;20020;-79
2023/03/16 01:14:18;;;;;;;9.60;6.60;;;;;;;3.71;100.00;101542.53;5282354;28;20094;-78
2023/03/16 01:16:50;;;;;;;9.35;6.45;;;;;;;3.79;100.00;101539.63;5291833;28;20394;-78
2023/03/16 01:19:22;;;;;;;9.75;6.10;;;;;;;3.74;100.00;101536.31;5302886;28;20092;-78
2023/03/16 01:21:53;;;;;;;10.80;6.53;;;;;;;3.74;100.00;101528.38;5292001;28;20486;-78
2023/03/16 01:24:24;;;;;;;10.85;6.63;;;;;;;3.73;100.00;101516.94;5294164;28;20050;-78
2023/03/16 01:26:56;;;;;;;10.10;6.10;;;;;;;3.75;100.00;101518.69;5281681;28;20510;-78
2023/03/16 01:29:27;;;;;;;10.23;6.68;;;;;;;3.78;100.00;101515.91;5290106;28;20028;-78
2023/03/16 01:32:00;;;;;;;10.40;6.65;;;;;;;3.75;100.00;101514.25;5288684;28;20099;-78
2023/03/16 01:34:32;;;;;;;9.90;5.80;;;;;;;3.78;100.00;101511.50;5293218;28;20030;-78
2023/03/16 01:37:03;;;;;;;9.13;6.22;;;;;;;3.81;100.00;101510.53;5286851;28;20036;-78
2023/03/16 01:39:34;;;;;;;8.90;6.20;;;;;;;3.81;100.00;101507.88;5289650;28;20055;-78
2023/03/16 01:42:06;;;;;;;11.88;6.50;;;;;;;3.88;100.00;101509.38;5283365;28;20123;-78
2023/03/16 01:44:55;;;;;;;9.70;6.25;;;;;;;3.83;100.00;101506.91;5285093;28;20031;-78
2023/03/16 01:47:27;;;;;;;10.52;6.18;;;;;;;3.85;100.00;101507.69;5284285;28;20032;-78
2023/03/16 01:49:58;;;;;;;10.25;5.50;;;;;;;3.80;100.00;101514.09;5283820;28;20071;-78
2023/03/16 01:52:34;;;;;;;12.00;6.00;;;;;;;3.81;100.00;101505.25;5285388;28;20035;-78
2023/03/16 01:55:08;;;;;;;8.63;5.72;;;;;;;3.81;100.00;101510.53;5298285;28;20432;-78
2023/03/16 01:57:44;;;;;;;11.00;6.10;;;;;;;3.82;100.00;101502.56;5284098;28;20575;-78
2023/03/16 02:00:19;;;;;;;8.88;5.40;;;;;;;3.86;100.00;101498.03;5279855;28;20039;-78
2023/03/16 02:02:57;;;;;;;7.03;5.00;;;;;;;3.81;100.00;101497.34;5284042;28;20024;-78
2023/03/16 02:05:35;;;;;;;8.32;5.63;;;;;;;3.83;100.00;101490.22;5286976;28;20023;-78
2023/03/16 02:08:11;;;;;;;8.90;5.15;;;;;;;3.91;100.00;101491.66;5281374;28;20036;-78
2023/03/16 02:10:43;;;;;;;8.07;5.57;;;;;;;3.88;100.00;101491.75;5283818;28;20554;-78
2023/03/16 02:13:15;;;;;;;6.57;4.90;;;;;;;3.91;100.00;101489.03;5287239;28;20020;-78
2023/03/16 02:15:46;;;;;;;9.98;5.60;;;;;;;3.95;100.00;101487.13;5283403;28;20415;-78
2023/03/16 02:18:21;;;;;;;10.55;5.50;;;;;;;3.97;100.00;101487.94;5283470;28;20051;-78
2023/03/16 02:21:20;;;;;;;8.63;5.60;;;;;;;3.93;100.00;101481.00;5283398;28;20076;-78
2023/03/16 02:23:52;;;;;;;9.80;5.53;;;;;;;3.91;100.00;101480.22;5282133;28;20583;-78
2023/03/16 02:26:46;;;;;;;7.85;5.22;;;;;;;3.96;100.00;101480.06;5280001;28;20052;-78
2023/03/16 02:29:54;;;;;;;7.85;5.25;;;;;;;3.96;100.00;101477.41;5280610;28;20330;-77
2023/03/16 02:32:28;;;;;;;7.25;5.35;;;;;;;3.93;100.00;101483.66;5284448;28;21069;-78
2023/03/16 02:35:01;;;;;;;8.35;5.32;;;;;;;3.96;100.00;101483.56;5281998;28;20377;-77
2023/03/16 02:37:33;;;;;;;8.05;5.53;;;;;;;4.04;100.00;101470.91;5282382;28;20413;-77
2023/03/16 02:40:29;;;;;;;10.02;5.57;;;;;;;3.95;100.00;101481.84;5283317;28;20028;-77
2023/03/16 02:43:05;;;;;;;9.95;5.88;;;;;;;3.92;100.00;101474.88;5295126;28;20024;-77
2023/03/16 02:45:42;;;;;;;8.25;5.38;;;;;;;3.90;100.00;101478.50;5280262;28;20039;-77
2023/03/16 02:48:21;;;;;;;11.05;6.05;;;;;;;3.95;100.00;101470.41;5281988;28;20538;-77
2023/03/16 02:50:53;;;;;;;8.95;5.55;;;;;;;3.93;100.00;101467.81;5276252;28;20053;-77
2023/03/16 02:53:24;;;;;;;8.18;5.80;;;;;;;3.94;100.00;101477.47;5295327;28;20032;-77
2023/03/16 02:55:56;;;;;;;9.15;5.97;;;;;;;3.90;100.00;101467.94;5281825;28;20096;-77
2023/03/16 02:58:28;;;;;;;9.50;5.95;;;;;;;3.88;100.00;101462.72;5290834;28;20031;-77
2023/03/16 03:01:00;;;;;;;8.32;5.30;;;;;;;3.93;100.00;101459.91;5284865;28;20090;-77
2023/03/16 03:03:33;;;;;;;10.90;5.90;;;;;;;3.98;100.00;101449.16;5280980;28;20452;-77
2023/03/16 03:06:04;;;;;;;10.25;5.22;;;;;;;3.86;100.00;101443.44;5282370;28;20479;-77
2023/03/16 03:08:36;;;;;;;10.43;5.35;;;;;;;3.86;100.00;101456.66;5279718;28;20036;-77
2023/03/16 03:11:08;;;;;;;8.55;5.75;;;;;;;3.87;100.00;101454.84;5279406;28;20035;-77
2023/03/16 03:13:43;;;;;;;9.55;6.10;;;;;;;3.85;100.00;101454.06;5280695;28;20378;-77
2023/03/16 03:16:14;;;;;;;8.82;5.68;;;;;;;3.87;100.00;101462.78;5280786;28;20020;-77
2023/03/16 03:18:46;;;;;;;8.48;5.45;;;;;;;3.91;100.00;101451.19;5281076;28;20389;-77
2023/03/16 03:21:18;;;;;;;8.27;5.97;;;;;;;3.87;100.00;101455.75;5284149;28;20058;-77
2023/03/16 03:23:50;;;;;;;7.60;5.53;;;;;;;3.86;100.00;101456.66;5282761;28;20023;-77
2023/03/16 03:26:21;;;;;;;9.98;5.22;;;;;;;3.86;100.00;101447.88;5285319;28;20536;-77
2023/03/16 03:28:52;;;;;;;10.75;5.85;;;;;;;3.92;100.00;101448.47;5284739;28;20038;-77
2023/03/16 03:31:24;;;;;;;8.82;5.60;;;;;;;3.86;100.00;101443.44;5282809;28;20101;-77
2023/03/16 03:33:55;;;;;;;9.48;4.95;;;;;;;3.93;100.00;101444.94;5279173;28;20036;-77
2023/03/16 03:36:26;;;;;;;8.88;5.00;;;;;;;3.85;100.00;101451.41;5284479;28;20028;-77
2023/03/16 03:38:58;;;;;;;8.63;5.57;;;;;;;3.85;100.00;101446.13;5282431;28;20422;-77
2023/03/16 03:41:31;;;;;;;7.20;4.80;;;;;;;3.89;100.00;101430.16;5282109;28;20023;-77
2023/03/16 03:44:03;;;;;;;8.10;4.88;;;;;;;3.88;100.00;101432.84;5284449;28;20051;-77
2023/03/16 03:46:34;;;;;;;7.35;4.90;;;;;;;3.89;100.00;101435.41;5283112;28;21204;-77
2023/03/16 03:49:06;;;;;;;8.10;5.00;;;;;;;3.91;100.00;101432.69;5284590;28;20039;-77
2023/03/16 03:51:37;;;;;;;8.52;5.07;;;;;;;3.92;100.00;101435.28;5284899;28;20123;-77
2023/03/16 03:54:09;;;;;;;8.40;4.80;;;;;;;3.89;100.00;101442.47;5283982;28;20053;-77
2023/03/16 03:56:40;;;;;;;9.15;5.00;;;;;;;3.91;100.00;101438.84;5282741;28;20020;-77
2023/03/16 03:59:11;;;;;;;8.48;5.05;;;;;;;3.89;100.00;101429.25;5284909;28;20025;-77
2023/03/16 04:01:43;;;;;;;6.60;4.57;;;;;;;3.95;100.00;101430.81;5274801;28;20029;-77
2023/03/16 04:04:15;;;;;;;7.60;4.70;;;;;;;3.92;100.00;101429.16;5291443;28;20036;-77
2023/03/16 04:06:46;;;;;;;8.30;4.70;;;;;;;3.89;100.00;101413.41;5283448;28;20031;-77
2023/03/16 04:09:18;;;;;;;8.98;4.80;;;;;;;3.94;100.00;101414.09;5281249;28;20981;-77
2023/03/16 04:11:49;;;;;;;8.35;5.50;;;;;;;3.90;100.00;101405.44;5295596;28;20064;-77
2023/03/16 04:14:21;;;;;;;7.65;4.53;;;;;;;3.89;100.00;101409.03;5285571;28;20101;-77
2023/03/16 04:16:53;;;;;;;7.32;4.88;;;;;;;3.90;100.00;101404.59;5283466;28;20073;-77
2023/03/16 04:19:24;;;;;;;7.78;4.95;;;;;;;3.99;100.00;101404.22;5281821;28;20020;-77
2023/03/16 04:21:56;;;;;;;6.90;4.30;;;;;;;3.90;100.00;101410.72;5282189;28;20028;-77
2023/03/16 04:24:27;;;;;;;7.32;4.40;;;;;;;3.90;100.00;101412.50;5285567;28;20027;-77
2023/03/16 04:26:59;;;;;;;8.85;4.75;;;;;;;3.91;100.00;101404.53;5279667;28;20047;-77
2023/03/16 04:29:31;;;;;;;8.07;4.80;;;;;;;3.95;100.00;101404.41;5282480;28;20032;-77
2023/03/16 04:32:04;;;;;;;7.25;4.35;;;;;;;3.93;100.00;101404.44;5283426;28;20725;-77
2023/03/16 04:34:35;;;;;;;7.38;4.20;;;;;;;3.94;100.00;101400.91;5285423;28;20059;-77
2023/03/16 04:37:07;;;;;;;8.45;4.85;;;;;;;4.03;100.00;101407.63;5279396;28;20477;-77
2023/03/16 04:39:38;;;;;;;6.63;4.32;;;;;;;3.97;100.00;101406.09;5280361;28;20048;-77
2023/03/16 04:42:11;;;;;;;11.43;5.18;;;;;;;4.02;100.00;101406.72;5275347;28;20481;-77
2023/03/16 04:44:45;;;;;;;8.82;4.28;;;;;;;4.01;100.00;101394.47;5278143;28;20024;-77
2023/03/16 04:47:16;;;;;;;6.00;3.90;;;;;;;3.99;100.00;101398.06;5281626;28;20509;-77
2023/03/16 04:49:47;;;;;;;7.40;4.18;;;;;;;4.04;100.00;101402.25;5280294;28;20106;-77
2023/03/16 04:52:19;;;;;;;6.55;4.32;;;;;;;4.03;100.00;101397.06;5280964;28;20031;-76
2023/03/16 04:54:51;;;;;;;8.15;4.07;;;;;;;4.08;100.00;101395.91;5282855;28;20680;-77
2023/03/16 04:57:22;;;;;;;6.90;4.15;;;;;;;4.05;100.00;101396.06;5280080;28;20029;-77
2023/03/16 04:59:54;;;;;;;9.55;4.70;;;;;;;4.07;100.00;101396.84;5278968;28;20149;-77
2023/03/16 05:02:26;;;;;;;7.72;3.90;;;;;;;4.12;100.00;101396.66;5280349;28;20195;-77
2023/03/16 05:04:57;;;;;;;6.50;4.53;;;;;;;4.09;100.00;101388.88;5283590;28;20478;-77
2023/03/16 05:07:28;;;;;;;7.40;3.78;;;;;;;4.08;100.00;101387.16;5278259;28;20122;-76
2023/03/16 05:09:59;;;;;;;6.80;4.07;;;;;;;4.08;100.00;101393.28;5281034;28;20036;-77
2023/03/16 05:12:31;;;;;;;6.45;3.67;;;;;;;4.12;100.00;101386.97;5297092;28;20027;-76
2023/03/16 05:15:03;;;;;;;8.05;3.88;;;;;;;4.10;100.00;101391.47;5284656;28;20024;-76
2023/03/16 05:17:34;;;;;;;6.82;4.07;;;;;;;4.09;100.00;101379.16;5287153;28;20021;-76
2023/03/16 05:20:07;;;;;;;7.20;3.95;;;;;;;4.12;100.00;101373.78;5282036;28;20028;-76
2023/03/16 05:22:40;;;;;;;7.38;4.13;;;;;;;4.09;100.00;101378.31;5285139;28;20028;-76
2023/03/16 05:25:13;;;;;;;7.03;4.03;;;;;;;4.08;100.00;101380.06;5281040;28;20020;-76
2023/03/16 05:27:48;;;;;;;9.57;3.90;;;;;;;4.08;100.00;101373.94;5278376;28;20052;-76
2023/03/16 05:30:20;;;;;;;8.05;3.88;;;;;;;4.06;100.00;101366.06;5287890;28;20527;-76
2023/03/16 05:32:51;;;;;;;9.00;3.85;;;;;;;4.10;100.00;101369.44;5278867;28;20039;-76
2023/03/16 05:35:23;;;;;;;6.82;3.70;;;;;;;4.11;100.00;101371.19;5284691;28;20024;-76
2023/03/16 05:37:54;;;;;;;6.28;4.10;;;;;;;4.12;100.00;101371.13;5282341;28;20035;-76
2023/03/16 05:40:26;;;;;;;8.07;4.10;;;;;;;4.10;100.00;101358.88;5280955;28;20035;-76
2023/03/16 05:42:59;;;;;;;9.05;4.13;;;;;;;4.12;100.00;101364.97;5279984;28;20103;-76
2023/03/16 05:45:31;;;;;;;8.82;3.85;;;;;;;4.13;100.00;101356.13;5284292;28;20019;-76
2023/03/16 05:48:04;;;;;;;6.10;3.67;;;;;;;4.15;100.00;101345.50;5283036;28;20536;-76
2023/03/16 05:50:35;;;;;;;8.37;3.73;;;;;;;4.16;100.00;101358.66;5280572;28;20028;-76
2023/03/16 05:53:07;;;;;;;5.85;3.80;;;;;;;4.16;100.00;101349.84;5276789;28;20297;-76
2023/03/16 05:55:39;;;;;;;6.68;3.58;;;;;;;4.16;100.00;101352.50;5282890;28;20492;-76
2023/03/16 05:58:10;;;;;;;8.20;4.13;;;;;;;4.20;100.00;101348.81;5274530;28;20135;-76
2023/03/16 06:00:41;;;;;;;7.80;3.75;;;;;;;4.21;100.00;101340.81;5288419;28;20032;-76
2023/03/16 06:03:13;;;;;;;9.63;4.38;;;;;;;4.21;100.00;101347.91;5284960;28;20035;-76
2023/03/16 06:05:44;;;;;;;8.50;4.57;;;;;;;4.22;100.00;101344.31;5288234;28;20390;-76
2023/03/16 06:08:15;;;;;;;8.82;3.97;;;;;;;4.30;100.00;101356.28;5288489;28;20079;-76
2023/03/16 06:10:47;;;;;;;7.72;4.28;;;;;;;4.30;100.00;101352.78;5286956;28;20143;-76
2023/03/16 06:13:19;;;;;;;6.28;3.75;;;;;;;4.27;100.00;101345.00;5283200;28;20024;-76
2023/03/16 06:15:50;;;;;;;9.95;4.30;;;;;;;4.29;100.00;101356.34;5290193;28;20024;-76
2023/03/16 06:18:21;;;;;;;7.10;3.60;;;;;;;4.35;100.00;101349.94;5295760;28;20598;-76
2023/03/16 06:20:52;;;;;;;6.18;3.47;;;;;;;4.38;100.00;101352.47;5282921;28;20426;-76
2023/03/16 06:23:24;;;;;;;7.75;3.97;;;;;;;4.38;100.00;101347.19;5290204;28;20032;-75
2023/03/16 06:25:58;;;;;;;9.98;3.83;;;;;;;4.39;100.00;101352.41;5290933;28;20059;-77
2023/03/16 06:28:29;;;;;;;8.48;3.50;;;;;;;4.39;100.00;101355.06;5291443;28;20040;-75
2023/03/16 06:31:02;;;;;;;9.30;4.13;;;;;;;4.41;100.00;101347.91;5290566;28;20059;-76
2023/03/16 06:33:33;;;;;;;7.57;3.38;;;;;;;4.43;100.00;101343.44;5293035;28;20047;-76
2023/03/16 06:36:05;;;;;;;8.60;3.70;;;;;;;4.44;100.00;101347.78;5291886;28;20510;-76
2023/03/16 06:38:36;;;;;;;8.90;4.40;;;;;;;4.42;100.00;101346.97;5294178;28;20038;-75
2023/03/16 06:41:08;;;;;;;9.32;4.40;;;;;;;4.45;100.00;101344.22;5287780;28;20127;-75
2023/03/16 06:43:39;;;;;;;7.53;4.32;;;;;;;4.43;100.00;101335.50;5288730;28;20031;-75
2023/03/16 06:46:10;;;;;;;7.55;3.97;;;;;;;4.47;100.00;101328.31;5290105;28;20028;-75
2023/03/16 06:48:42;;;;;;;6.82;4.13;;;;;;;4.48;100.00;101332.66;5287756;28;21146;-75
2023/03/16 06:51:13;;;;;;;7.15;3.92;;;;;;;4.46;100.00;101331.84;5279927;28;21219;-75
2023/03/16 06:53:45;;;;;;;7.78;3.65;;;;;;;4.48;100.00;101338.78;5284247;28;20402;-74
2023/03/16 06:56:16;;;;;;;8.80;4.05;;;;;;;4.50;100.00;101344.00;5271494;28;20024;-75
2023/03/16 06:58:47;;;;;;;8.32;3.90;;;;;;;4.50;100.00;101342.22;5276475;28;20475;-75
2023/03/16 07:01:20;;;;;;;9.10;4.10;;;;;;;4.51;100.00;101341.31;5284741;28;20397;-75
2023/03/16 07:03:51;;;;;;;8.48;4.05;;;;;;;4.54;100.00;101347.38;5283496;28;20102;-75
2023/03/16 07:06:23;;;;;;;6.38;3.90;;;;;;;4.57;100.00;101337.53;5287794;28;20815;-75
2023/03/16 07:08:54;;;;;;;6.07;3.97;;;;;;;4.62;100.00;101334.69;5289715;28;20028;-75
2023/03/16 07:11:26;;;;;;;7.35;3.53;;;;;;;4.66;100.00;101339.78;5288619;28;20042;-75
2023/03/16 07:13:58;;;;;;;9.05;3.90;;;;;;;4.65;100.00;101334.56;5286918;28;20716;-75
2023/03/16 07:16:29;;;;;;;6.25;3.58;;;;;;;4.68;100.00;101326.50;5286130;28;20048;-75
2023/03/16 07:19:00;;;;;;;9.40;4.10;;;;;;;4.71;100.00;101329.00;5282212;28;20150;-74
2023/03/16 07:21:38;;;;;;;6.47;3.50;;;;;;;4.76;100.00;101316.44;5283349;28;20077;-72
2023/03/16 07:24:10;;;;;;;8.52;3.38;;;;;;;4.79;100.00;101313.66;5288597;28;20138;-74
2023/03/16 07:26:42;;;;;;;5.57;3.38;;;;;;;4.85;100.00;101310.75;5288965;28;20129;-73
2023/03/16 07:29:14;;;;;;;9.18;3.83;;;;;;;4.90;100.00;101314.03;5290071;28;20056;-74
2023/03/16 07:31:46;;;;;;;5.78;2.90;;;;;;;4.96;100.00;101317.34;5290098;28;20028;-75
2023/03/16 07:34:17;;;;;;;7.95;3.42;;;;;;;5.03;100.00;101316.13;5288797;28;20040;-75
2023/03/16 07:36:51;;;;;;;8.35;3.67;;;;;;;5.08;100.00;101319.41;5285218;28;20125;-75
2023/03/16 07:39:22;;;;;;;5.55;3.28;;;;;;;5.07;100.00;101312.41;5286288;28;20038;-75
2023/03/16 07:41:53;;;;;;;7.53;3.30;;;;;;;5.12;100.00;101323.66;5287595;28;20470;-74
2023/03/16 07:44:25;;;;;;;8.18;3.30;;;;;;;5.17;100.00;101321.63;5281859;28;20462;-75
2023/03/16 07:46:56;;;;;;;9.18;3.22;;;;;;;5.16;100.00;101304.06;5289790;28;20469;-75
2023/03/16 07:49:27;;;;;;;5.28;3.08;;;;;;;5.22;100.00;101313.50;5287112;28;20453;-75
2023/03/16 07:51:59;;;;;;;5.95;3.30;;;;;;;5.25;100.00;101316.88;5284757;28;20977;-75
2023/03/16 07:54:30;;;;;;;7.88;3.30;;;;;;;5.29;100.00;101318.44;5288391;28;20028;-75
2023/03/16 07:57:02;;;;;;;8.43;3.45;;;;;;;5.31;100.00;101315.69;5287537;28;20524;-75
2023/03/16 07:59:33;;;;;;;7.53;3.30;;;;;;;5.39;100.00;101315.31;5288628;28;20579;-75
2023/03/16 08:02:04;;;;;;;7.13;3.20;;;;;;;5.41;100.00;101318.78;5288808;28;20383;-75
2023/03/16 08:04:36;;;;;;;7.88;3.53;;;;;;;5.48;100.00;101323.72;5291821;28;20034;-75
2023/03/16 08:07:13;;;;;;;6.90;3.35;;;;;;;5.51;100.00;101320.06;5288389;28;20089;-75
2023/03/16 08:09:44;;;;;;;9.90;3.63;;;;;;;5.63;100.00;101324.75;5283932;28;20024;-75
2023/03/16 08:12:16;;;;;;;7.65;3.15;;;;;;;5.64;100.00;101309.75;5286351;28;20032;-75
2023/03/16 08:14:47;;;;;;;6.55;3.65;;;;;;;5.72;100.00;101312.88;5285621;28;20043;-75
2023/03/16 08:17:19;;;;;;;8.32;3.45;;;;;;;5.82;100.00;101315.91;5292169;28;20032;-75
2023/03/16 08:19:50;;;;;;;7.75;3.63;;;;;;;5.88;100.00;101307.66;5286440;28;20475;-75
2023/03/16 08:22:22;;;;;;;7.25;3.83;;;;;;;5.95;100.00;101316.19;5283155;28;20036;-75
2023/03/16 08:24:53;;;;;;;7.85;4.22;;;;;;;6.06;100.00;101316.53;5286727;28;20476;-75
2023/03/16 08:27:28;;;;;;;8.02;3.83;;;;;;;6.14;100.00;101316.16;5289767;28;20047;-75
2023/03/16 08:30:04;;;;;;;10.52;4.25;;;;;;;6.19;100.00;101325.56;5293609;28;20038;-75
2023/03/16 08:32:38;;;;;;;6.60;3.63;;;;;;;6.25;100.00;101319.09;5293724;28;20552;-75
2023/03/16 08:35:15;;;;;;;9.18;3.65;;;;;;;6.31;100.00;101324.09;5288615;28;20025;-75
2023/03/16 08:37:46;;;;;;;8.15;3.50;;;;;;;6.39;100.00;101315.75;5290400;28;20392;-75
2023/03/16 08:40:18;;;;;;;9.77;3.97;;;;;;;6.40;100.00;101320.97;5286545;28;20032;-75
2023/03/16 08:42:49;;;;;;;6.78;2.92;;;;;;;6.47;100.00;101313.56;5288467;28;20032;-75
2023/03/16 08:45:22;;;;;;;8.73;3.42;;;;;;;6.48;100.00;101316.16;5278021;28;20389;-75
2023/03/16 08:47:53;;;;;;;5.90;3.33;;;;;;;6.52;100.00;101313.31;5289771;28;20027;-75
2023/03/16 08:50:25;;;;;;;7.20;3.08;;;;;;;6.57;100.00;101308.63;5288520;28;20032;-75
2023/03/16 08:52:56;;;;;;;5.93;2.97;;;;;;;6.66;100.00;101318.78;5289074;28;20081;-75
2023/03/16 08:55:27;;;;;;;7.53;3.33;;;;;;;6.66;100.00;101310.81;5292118;28;20025;-75
2023/03/16 08:57:59;;;;;;;6.10;3.22;;;;;;;6.67;100.00;101310.75;5292931;28;20256;-75
2023/03/16 09:00:31;;;;;;;6.00;3.10;;;;;;;6.72;100.00;101299.88;5285221;28;20077;-76
2023/03/16 09:03:02;;;;;;;6.35;3.60;;;;;;;6.76;100.00;101296.13;5288641;28;20029;-76
2023/03/16 09:05:33;;;;;;;7.03;3.60;;;;;;;6.86;100.00;101293.81;5292079;28;20024;-76
2023/03/16 09:08:05;;;;;;;7.55;2.92;;;;;;;6.95;100.00;101290.69;5288608;28;20043;-76
2023/03/16 09:10:36;;;;;;;6.32;3.00;;;;;;;7.03;100.00;101284.97;5289517;28;20050;-76
2023/03/16 09:13:08;;;;;;;5.32;3.10;;;;;;;7.11;100.00;101288.03;5286403;28;20043;-76
2023/03/16 09:15:39;;;;;;;7.40;3.10;;;;;;;7.18;100.00;101289.44;5288702;28;20358;-76
2023/03/16 09:18:10;;;;;;;6.30;3.70;;;;;;;7.31;100.00;101283.47;5287669;28;20046;-76
2023/03/16 09:20:42;;;;;;;8.48;2.78;;;;;;;7.44;100.00;101287.09;5289888;28;20024;-76
2023/03/16 09:23:14;;;;;;;8.02;3.20;;;;;;;7.58;100.00;101295.16;5287623;28;20024;-76
2023/03/16 09:25:45;;;;;;;5.75;3.13;;;;;;;7.69;100.00;101283.94;5283428;28;20563;-75
2023/03/16 09:28:17;;;;;;;6.90;2.58;;;;;;;7.74;100.00;101294.28;5285108;28;20027;-76
2023/03/16 09:30:49;;;;;;;8.60;2.50;;;;;;;7.83;100.00;101288.44;5283637;28;20024;-76
2023/03/16 09:33:21;;;;;;;4.75;2.63;;;;;;;7.90;100.00;101275.66;5286124;28;20360;-76
2023/03/16 09:35:54;;;;;;;6.20;2.50;;;;;;;7.98;100.00;101276.94;5292979;28;20089;-76
2023/03/16 09:38:27;;;;;;;5.85;3.17;;;;;;;8.01;100.00;101292.69;5285390;28;20429;-76
2023/03/16 09:41:02;;;;;;;6.03;2.75;;;;;;;8.10;100.00;101275.34;5283924;28;20028;-76
2023/03/16 09:44:03;;;;;;;5.10;2.33;;;;;;;8.17;100.00;101283.78;5282287;28;20553;-76
2023/03/16 09:46:47;;;;;;;6.63;2.83;;;;;;;8.25;100.00;101285.06;5263918;28;20044;-77
2023/03/16 09:49:20;;;;;;;6.10;2.90;;;;;;;8.35;100.00;101284.53;5280626;28;20029;-77
2023/03/16 09:51:52;;;;;;;5.15;2.55;;;;;;;8.49;100.00;101273.91;5285212;28;20341;-76
2023/03/16 09:54:33;;;;;;;5.63;2.58;;;;;;;8.62;100.00;101282.88;5284345;28;20111;-76
2023/03/16 09:57:18;;;;;;;6.07;2.70;;;;;;;8.69;100.00;101286.03;5283787;28;20506;-76
2023/03/16 09:59:49;;;;;;;;;;;;;;;8.80;100.00;101278.22;5279435;28;20535;-76
2023/03/16 10:02:55;;;;;;;7.13;2.90;;;;;;;8.84;100.00;101260.28;5287126;28;19912;-76
2023/03/16 10:05:26;;;;;;;4.88;2.33;;;;;;;8.89;100.00;101247.50;5284573;28;20105;-76
2023/03/16 10:08:07;;;;;;;6.28;2.40;;;;;;;8.92;100.00;101263.31;5288072;28;20036;-76
2023/03/16 10:10:39;;;;;;;4.60;2.13;;;;;;;8.98;100.00;101256.75;5288391;28;20043;-76
2023/03/16 10:13:41;;;;;;;7.28;2.58;;;;;;;9.08;100.00;101249.88;5292005;28;20522;-76
2023/03/16 10:16:20;;;;;;;6.38;2.20;;;;;;;9.16;100.00;101242.22;5279906;28;20078;-76
2023/03/16 10:19:28;;;;;;;7.05;2.58;;;;;;;9.33;100.00;101235.81;5284459;28;20103;-76
2023/03/16 10:22:11;;;;;;;7.50;3.05;;;;;;;9.36;100.00;101238.31;5273847;28;20059;-77
2023/03/16 10:25:20;;;;;;;5.90;3.00;;;;;;;9.42;100.00;101247.69;5282903;28;20174;-76
2023/03/16 10:27:51;;;;;;;6.00;2.25;;;;;;;9.46;100.00;101241.22;5282579;28;20048;-77
2023/03/16 10:30:27;;;;;;;6.07;2.25;;;;;;;9.51;100.00;101232.91;5293394;28;20102;-76
2023/03/16 10:33:29;;;;;;;6.80;2.38;;;;;;;9.52;100.00;101240.81;5287646;28;20037;-76
2023/03/16 10:36:11;;;;;;;6.30;2.20;;;;;;;9.49;100.00;101234.81;5289124;28;20044;-76
2023/03/16 10:38:45;;;;;;;6.70;2.22;;;;;;;9.56;100.00;101241.47;5284958;28;20024;-78
2023/03/16 10:41:17;;;;;;;5.68;2.15;;;;;;;9.55;100.00;101237.94;5291903;28;20536;-77
2023/03/16 10:43:53;;;;;;;5.80;2.15;;;;;;;9.50;100.00;101236.53;5283703;28;20031;-76
2023/03/16 10:46:27;;;;;;;4.93;2.10;;;;;;;9.60;100.00;101222.50;5292946;28;20036;-77
2023/03/16 10:49:00;;;;;;;4.93;1.85;;;;;;;9.68;100.00;101221.97;5281736;28;20360;-77
2023/03/16 10:51:35;;;;;;;5.10;2.30;;;;;;;9.83;100.00;101222.78;5286792;28;20032;-73
2023/03/16 10:54:23;;;;;;;9.35;2.17;;;;;;;9.87;100.00;101218.94;5282173;28;20037;-73
2023/03/16 10:56:56;;;;;;;6.65;2.28;;;;;;;9.94;100.00;101214.06;5283032;28;20028;-73
2023/03/16 10:59:30;;;;;;;5.07;2.00;;;;;;;10.15;100.00;101214.41;5279551;28;20044;-73
2023/03/16 11:02:14;;;;;;;5.75;2.40;;;;;;;10.16;100.00;101211.66;5284756;28;20032;-74
2023/03/16 11:04:46;;;;;;;3.58;1.77;;;;;;;10.31;100.00;101206.22;5287865;28;20096;-73
2023/03/16 11:07:22;;;;;;;4.10;1.83;;;;;;;10.44;100.00;101206.22;5283637;28;20032;-73
2023/03/16 11:09:55;;;;;;;4.32;1.60;;;;;;;10.51;100.00;101203.03;5280931;28;20032;-73
2023/03/16 11:12:30;;;;;;;6.95;2.03;;;;;;;10.62;100.00;101198.72;5289326;28;20417;-73
2023/03/16 11:15:04;;;;;;;5.50;1.60;;;;;;;10.69;100.00;101192.00;5294811;28;20891;-70
2023/03/16 11:17:40;;;;;;;3.55;1.70;;;;;;;10.90;100.00;101181.59;5286114;28;20032;-74
2023/03/16 11:20:27;;;;;;;4.18;1.58;;;;;;;11.06;100.00;101178.66;5292932;28;20158;-73
2023/03/16 11:23:00;;;;;;;3.33;1.60;;;;;;;11.14;100.00;101173.59;5282328;28;20025;-73
2023/03/16 11:25:40;;;;;;;4.82;1.80;;;;;;;11.24;100.00;101179.97;5293152;28;20028;-73
2023/03/16 11:28:50;;;;;;;6.03;1.58;;;;;;;11.23;100.00;101170.25;5286266;28;20109;-73
2023/03/16 11:31:41;;;;;;;5.57;1.70;;;;;;;11.34;100.00;101180.16;5271661;28;20474;-73
2023/03/16 11:34:18;;;;;;;3.72;1.60;;;;;;;11.36;100.00;101172.88;5281624;28;20127;-73
2023/03/16 11:37:00;;;;;;;5.15;1.80;;;;;;;11.44;100.00;101165.13;5295845;28;20036;-73
2023/03/16 11:39:57;;;;;;;4.55;1.42;;;;;;;11.45;100.00;101163.28;5289088;28;20025;-73
2023/03/16 11:42:40;;;;;;;4.00;1.40;;;;;;;11.48;100.00;101157.72;5292072;28;20036;-73
2023/03/16 11:45:22;;;;;;;3.85;1.60;;;;;;;11.50;100.00;101161.97;5288706;28;20028;-73
2023/03/16 11:48:08;;;;;;;4.53;1.70;;;;;;;11.58;100.00;101154.25;5283366;28;20024;-74
2023/03/16 11:51:03;;;;;;;5.55;1.88;;;;;;;11.60;100.00;101156.78;5286269;28;20485;-73
2023/03/16 11:53:53;;;;;;;3.95;1.50;;;;;;;11.62;100.00;101140.66;5286153;28;20058;-73
2023/03/16 11:56:32;;;;;;;6.85;1.60;;;;;;;11.66;100.00;101144.78;5290006;28;20046;-73